sensor_id;sensor_type;location;lat;lon;timestamp;P1;durP1;ratioP1;P2;durP2;ratioP2
16393;SDS011;8306;51.128;4.476;2023-06-26T00:02:08;3.40;;;3.20;;
16393;SDS011;8306;51.128;4.476;2023-06-26T00:04:35;3.30;;;3.00;;
16393;SDS011;8306;51.128;4.476;2023-06-26T00:07:01;3.33;;;2.90;;
16393;SDS011;8306;51.128;4.476;2023-06-26T00:09:28;2.50;;;2.30;;
16393;SDS011;8306;51.128;4.476;2023-06-26T00:11:54;3.43;;;2.60;;
16393;SDS011;8306;51.128;4.476;2023-06-26T00:14:21;3.40;;;3.13;;
16393;SDS011;8306;51.128;4.476;2023-06-26T00:16:47;6.03;;;2.90;;
16393;SDS011;8306;51.128;4.476;2023-06-26T00:19:13;2.70;;;2.60;;
16393;SDS011;8306;51.128;4.476;2023-06-26T00:21:40;2.73;;;2.60;;
16393;SDS011;8306;51.128;4.476;2023-06-26T00:24:06;3.07;;;2.87;;
16393;SDS011;8306;51.128;4.476;2023-06-26T00:26:33;3.10;;;2.90;;
16393;SDS011;8306;51.128;4.476;2023-06-26T00:28:59;2.90;;;2.70;;
16393;SDS011;8306;51.128;4.476;2023-06-26T00:31:26;3.57;;;3.07;;
16393;SDS011;8306;51.128;4.476;2023-06-26T00:33:53;3.30;;;2.83;;
16393;SDS011;8306;51.128;4.476;2023-06-26T00:36:19;5.40;;;3.37;;
16393;SDS011;8306;51.128;4.476;2023-06-26T00:38:46;3.80;;;3.40;;
16393;SDS011;8306;51.128;4.476;2023-06-26T00:41:12;3.63;;;3.33;;
16393;SDS011;8306;51.128;4.476;2023-06-26T00:43:39;3.80;;;3.50;;
16393;SDS011;8306;51.128;4.476;2023-06-26T00:46:05;3.43;;;3.23;;
16393;SDS011;8306;51.128;4.476;2023-06-26T00:48:31;3.47;;;3.27;;
16393;SDS011;8306;51.128;4.476;2023-06-26T00:50:58;3.40;;;3.20;;
16393;SDS011;8306;51.128;4.476;2023-06-26T00:53:24;3.40;;;3.10;;
16393;SDS011;8306;51.128;4.476;2023-06-26T00:55:51;3.97;;;3.43;;
16393;SDS011;8306;51.128;4.476;2023-06-26T00:58:17;3.33;;;3.03;;
16393;SDS011;8306;51.128;4.476;2023-06-26T01:00:44;3.60;;;3.23;;
16393;SDS011;8306;51.128;4.476;2023-06-26T01:03:11;4.53;;;3.50;;
16393;SDS011;8306;51.128;4.476;2023-06-26T01:05:37;3.17;;;2.97;;
16393;SDS011;8306;51.128;4.476;2023-06-26T01:08:03;3.27;;;3.07;;
16393;SDS011;8306;51.128;4.476;2023-06-26T01:10:30;4.40;;;3.07;;
16393;SDS011;8306;51.128;4.476;2023-06-26T01:12:56;3.73;;;3.30;;
16393;SDS011;8306;51.128;4.476;2023-06-26T01:15:23;3.20;;;3.00;;
16393;SDS011;8306;51.128;4.476;2023-06-26T01:17:50;3.30;;;3.00;;
16393;SDS011;8306;51.128;4.476;2023-06-26T01:20:16;3.17;;;2.87;;
16393;SDS011;8306;51.128;4.476;2023-06-26T01:22:48;2.97;;;2.77;;
16393;SDS011;8306;51.128;4.476;2023-06-26T01:27:48;3.03;;;2.83;;
16393;SDS011;8306;51.128;4.476;2023-06-26T01:30:13;3.57;;;3.27;;
16393;SDS011;8306;51.128;4.476;2023-06-26T01:32:39;3.50;;;3.10;;
16393;SDS011;8306;51.128;4.476;2023-06-26T01:35:06;4.10;;;3.30;;
16393;SDS011;8306;51.128;4.476;2023-06-26T01:37:33;3.53;;;3.23;;
16393;SDS011;8306;51.128;4.476;2023-06-26T01:39:59;6.23;;;3.50;;
16393;SDS011;8306;51.128;4.476;2023-06-26T01:42:26;5.47;;;3.10;;
16393;SDS011;8306;51.128;4.476;2023-06-26T01:44:52;3.70;;;3.40;;
16393;SDS011;8306;51.128;4.476;2023-06-26T01:47:19;4.03;;;3.70;;
16393;SDS011;8306;51.128;4.476;2023-06-26T01:52:25;3.57;;;3.23;;
16393;SDS011;8306;51.128;4.476;2023-06-26T01:54:58;11.50;;;3.23;;
16393;SDS011;8306;51.128;4.476;2023-06-26T01:57:22;3.83;;;3.10;;
16393;SDS011;8306;51.128;4.476;2023-06-26T01:59:48;4.40;;;3.40;;
16393;SDS011;8306;51.128;4.476;2023-06-26T02:02:15;4.90;;;3.80;;
16393;SDS011;8306;51.128;4.476;2023-06-26T02:04:41;5.43;;;3.13;;
16393;SDS011;8306;51.128;4.476;2023-06-26T02:07:08;4.83;;;3.27;;
16393;SDS011;8306;51.128;4.476;2023-06-26T02:09:34;4.77;;;3.40;;
16393;SDS011;8306;51.128;4.476;2023-06-26T02:12:01;5.13;;;3.30;;
16393;SDS011;8306;51.128;4.476;2023-06-26T02:14:27;7.77;;;3.43;;
16393;SDS011;8306;51.128;4.476;2023-06-26T02:16:53;4.20;;;3.07;;
16393;SDS011;8306;51.128;4.476;2023-06-26T02:19:20;5.50;;;3.50;;
16393;SDS011;8306;51.128;4.476;2023-06-26T02:21:47;4.80;;;3.43;;
16393;SDS011;8306;51.128;4.476;2023-06-26T02:24:13;4.20;;;3.20;;
16393;SDS011;8306;51.128;4.476;2023-06-26T02:26:39;3.60;;;3.00;;
16393;SDS011;8306;51.128;4.476;2023-06-26T02:29:06;4.37;;;3.50;;
16393;SDS011;8306;51.128;4.476;2023-06-26T02:31:32;4.87;;;3.70;;
16393;SDS011;8306;51.128;4.476;2023-06-26T02:33:59;7.27;;;3.57;;
16393;SDS011;8306;51.128;4.476;2023-06-26T02:36:25;4.47;;;3.73;;
16393;SDS011;8306;51.128;4.476;2023-06-26T02:38:52;6.37;;;3.07;;
16393;SDS011;8306;51.128;4.476;2023-06-26T02:41:18;4.47;;;3.60;;
16393;SDS011;8306;51.128;4.476;2023-06-26T02:43:45;6.70;;;3.77;;
16393;SDS011;8306;51.128;4.476;2023-06-26T02:46:11;5.30;;;3.90;;
16393;SDS011;8306;51.128;4.476;2023-06-26T02:48:38;4.57;;;3.40;;
16393;SDS011;8306;51.128;4.476;2023-06-26T02:51:04;6.30;;;3.67;;
16393;SDS011;8306;51.128;4.476;2023-06-26T02:53:31;5.30;;;3.73;;
16393;SDS011;8306;51.128;4.476;2023-06-26T02:55:57;4.53;;;3.80;;
16393;SDS011;8306;51.128;4.476;2023-06-26T02:58:24;4.70;;;3.13;;
16393;SDS011;8306;51.128;4.476;2023-06-26T03:00:50;4.57;;;3.70;;
16393;SDS011;8306;51.128;4.476;2023-06-26T03:03:17;5.67;;;3.67;;
16393;SDS011;8306;51.128;4.476;2023-06-26T03:05:43;4.40;;;3.63;;
16393;SDS011;8306;51.128;4.476;2023-06-26T03:08:10;5.20;;;3.57;;
16393;SDS011;8306;51.128;4.476;2023-06-26T03:10:36;4.90;;;3.10;;
16393;SDS011;8306;51.128;4.476;2023-06-26T03:13:02;4.63;;;3.60;;
16393;SDS011;8306;51.128;4.476;2023-06-26T03:15:29;6.47;;;3.47;;
16393;SDS011;8306;51.128;4.476;2023-06-26T03:17:55;4.47;;;3.70;;
16393;SDS011;8306;51.128;4.476;2023-06-26T03:20:22;5.40;;;3.77;;
16393;SDS011;8306;51.128;4.476;2023-06-26T03:22:48;5.27;;;4.03;;
16393;SDS011;8306;51.128;4.476;2023-06-26T03:25:15;5.90;;;3.87;;
16393;SDS011;8306;51.128;4.476;2023-06-26T03:27:41;5.40;;;4.07;;
16393;SDS011;8306;51.128;4.476;2023-06-26T03:30:08;7.07;;;3.67;;
16393;SDS011;8306;51.128;4.476;2023-06-26T03:32:35;6.67;;;4.33;;
16393;SDS011;8306;51.128;4.476;2023-06-26T03:35:01;7.60;;;4.10;;
16393;SDS011;8306;51.128;4.476;2023-06-26T03:37:27;8.33;;;4.57;;
16393;SDS011;8306;51.128;4.476;2023-06-26T03:39:54;8.93;;;4.00;;
16393;SDS011;8306;51.128;4.476;2023-06-26T03:42:20;5.73;;;3.90;;
16393;SDS011;8306;51.128;4.476;2023-06-26T03:44:47;4.97;;;3.67;;
16393;SDS011;8306;51.128;4.476;2023-06-26T03:47:13;5.97;;;4.27;;
16393;SDS011;8306;51.128;4.476;2023-06-26T03:49:40;6.30;;;4.10;;
16393;SDS011;8306;51.128;4.476;2023-06-26T03:52:06;6.00;;;4.20;;
16393;SDS011;8306;51.128;4.476;2023-06-26T03:54:33;7.77;;;4.17;;
16393;SDS011;8306;51.128;4.476;2023-06-26T03:56:59;6.57;;;3.87;;
16393;SDS011;8306;51.128;4.476;2023-06-26T03:59:26;6.83;;;3.67;;
16393;SDS011;8306;51.128;4.476;2023-06-26T04:01:52;7.23;;;4.30;;
16393;SDS011;8306;51.128;4.476;2023-06-26T04:04:19;8.70;;;4.30;;
16393;SDS011;8306;51.128;4.476;2023-06-26T04:06:45;7.60;;;3.77;;
16393;SDS011;8306;51.128;4.476;2023-06-26T04:09:12;5.83;;;4.27;;
16393;SDS011;8306;51.128;4.476;2023-06-26T04:11:38;6.53;;;4.53;;
16393;SDS011;8306;51.128;4.476;2023-06-26T04:14:05;6.57;;;4.30;;
16393;SDS011;8306;51.128;4.476;2023-06-26T04:16:31;6.07;;;3.63;;
16393;SDS011;8306;51.128;4.476;2023-06-26T04:18:58;9.67;;;4.27;;
16393;SDS011;8306;51.128;4.476;2023-06-26T04:21:24;6.17;;;3.77;;
16393;SDS011;8306;51.128;4.476;2023-06-26T04:23:51;7.60;;;3.97;;
16393;SDS011;8306;51.128;4.476;2023-06-26T04:26:17;8.57;;;3.57;;
16393;SDS011;8306;51.128;4.476;2023-06-26T04:28:44;6.03;;;3.77;;
16393;SDS011;8306;51.128;4.476;2023-06-26T04:31:10;5.60;;;3.60;;
16393;SDS011;8306;51.128;4.476;2023-06-26T04:33:37;7.57;;;3.47;;
16393;SDS011;8306;51.128;4.476;2023-06-26T04:36:03;7.87;;;3.33;;
16393;SDS011;8306;51.128;4.476;2023-06-26T04:38:34;6.87;;;3.70;;
16393;SDS011;8306;51.128;4.476;2023-06-26T04:40:57;7.23;;;4.00;;
16393;SDS011;8306;51.128;4.476;2023-06-26T04:43:24;6.53;;;3.57;;
16393;SDS011;8306;51.128;4.476;2023-06-26T04:45:50;8.27;;;4.33;;
16393;SDS011;8306;51.128;4.476;2023-06-26T04:48:17;8.00;;;4.20;;
16393;SDS011;8306;51.128;4.476;2023-06-26T04:50:43;7.60;;;3.53;;
16393;SDS011;8306;51.128;4.476;2023-06-26T04:53:10;7.27;;;3.73;;
16393;SDS011;8306;51.128;4.476;2023-06-26T04:55:36;6.97;;;3.30;;
16393;SDS011;8306;51.128;4.476;2023-06-26T04:58:03;6.87;;;3.30;;
16393;SDS011;8306;51.128;4.476;2023-06-26T05:00:29;8.13;;;3.20;;
16393;SDS011;8306;51.128;4.476;2023-06-26T05:02:56;9.47;;;3.90;;
16393;SDS011;8306;51.128;4.476;2023-06-26T05:05:22;8.20;;;3.90;;
16393;SDS011;8306;51.128;4.476;2023-06-26T05:07:49;7.17;;;3.63;;
16393;SDS011;8306;51.128;4.476;2023-06-26T05:10:15;8.13;;;3.70;;
16393;SDS011;8306;51.128;4.476;2023-06-26T05:12:41;5.40;;;3.07;;
16393;SDS011;8306;51.128;4.476;2023-06-26T05:15:08;6.77;;;3.20;;
16393;SDS011;8306;51.128;4.476;2023-06-26T05:17:34;6.37;;;3.07;;
16393;SDS011;8306;51.128;4.476;2023-06-26T05:20:01;7.57;;;2.90;;
16393;SDS011;8306;51.128;4.476;2023-06-26T05:22:27;6.20;;;3.10;;
16393;SDS011;8306;51.128;4.476;2023-06-26T05:24:54;7.97;;;3.77;;
16393;SDS011;8306;51.128;4.476;2023-06-26T05:27:20;5.47;;;2.90;;
16393;SDS011;8306;51.128;4.476;2023-06-26T05:29:47;8.70;;;3.33;;
16393;SDS011;8306;51.128;4.476;2023-06-26T05:32:15;5.03;;;3.17;;
16393;SDS011;8306;51.128;4.476;2023-06-26T05:34:40;6.27;;;2.90;;
16393;SDS011;8306;51.128;4.476;2023-06-26T05:37:06;7.27;;;3.10;;
16393;SDS011;8306;51.128;4.476;2023-06-26T05:39:33;5.37;;;3.23;;
16393;SDS011;8306;51.128;4.476;2023-06-26T05:41:59;6.63;;;3.73;;
16393;SDS011;8306;51.128;4.476;2023-06-26T05:44:26;6.50;;;3.10;;
16393;SDS011;8306;51.128;4.476;2023-06-26T05:46:52;6.23;;;3.43;;
16393;SDS011;8306;51.128;4.476;2023-06-26T05:49:19;5.83;;;3.37;;
16393;SDS011;8306;51.128;4.476;2023-06-26T05:51:45;5.73;;;3.20;;
16393;SDS011;8306;51.128;4.476;2023-06-26T05:54:12;6.50;;;3.20;;
16393;SDS011;8306;51.128;4.476;2023-06-26T05:56:38;5.77;;;2.77;;
16393;SDS011;8306;51.128;4.476;2023-06-26T05:59:05;6.67;;;2.63;;
16393;SDS011;8306;51.128;4.476;2023-06-26T06:01:31;4.00;;;2.20;;
16393;SDS011;8306;51.128;4.476;2023-06-26T06:03:58;6.97;;;2.43;;
16393;SDS011;8306;51.128;4.476;2023-06-26T06:06:24;6.67;;;2.80;;
16393;SDS011;8306;51.128;4.476;2023-06-26T06:08:51;4.30;;;2.30;;
16393;SDS011;8306;51.128;4.476;2023-06-26T06:11:17;5.50;;;2.50;;
16393;SDS011;8306;51.128;4.476;2023-06-26T06:13:43;5.73;;;2.90;;
16393;SDS011;8306;51.128;4.476;2023-06-26T06:16:10;6.77;;;2.50;;
16393;SDS011;8306;51.128;4.476;2023-06-26T06:18:36;6.00;;;2.40;;
16393;SDS011;8306;51.128;4.476;2023-06-26T06:21:03;4.23;;;2.20;;
16393;SDS011;8306;51.128;4.476;2023-06-26T06:23:29;4.50;;;2.10;;
16393;SDS011;8306;51.128;4.476;2023-06-26T06:25:56;2.97;;;1.93;;
16393;SDS011;8306;51.128;4.476;2023-06-26T06:28:22;3.20;;;1.80;;
16393;SDS011;8306;51.128;4.476;2023-06-26T06:30:49;5.67;;;2.30;;
16393;SDS011;8306;51.128;4.476;2023-06-26T06:33:15;4.37;;;2.20;;
16393;SDS011;8306;51.128;4.476;2023-06-26T06:35:42;5.23;;;2.30;;
16393;SDS011;8306;51.128;4.476;2023-06-26T06:38:08;8.80;;;2.50;;
16393;SDS011;8306;51.128;4.476;2023-06-26T06:40:35;5.60;;;2.00;;
16393;SDS011;8306;51.128;4.476;2023-06-26T06:43:01;4.50;;;2.00;;
16393;SDS011;8306;51.128;4.476;2023-06-26T06:45:28;4.23;;;2.20;;
16393;SDS011;8306;51.128;4.476;2023-06-26T06:47:54;3.87;;;1.67;;
16393;SDS011;8306;51.128;4.476;2023-06-26T06:50:21;3.37;;;2.07;;
16393;SDS011;8306;51.128;4.476;2023-06-26T06:52:47;4.80;;;2.00;;
16393;SDS011;8306;51.128;4.476;2023-06-26T06:55:14;3.27;;;1.87;;
16393;SDS011;8306;51.128;4.476;2023-06-26T06:57:40;3.35;;;1.87;;
16393;SDS011;8306;51.128;4.476;2023-06-26T07:02:36;5.03;;;1.57;;
16393;SDS011;8306;51.128;4.476;2023-06-26T07:05:03;2.80;;;1.30;;
16393;SDS011;8306;51.128;4.476;2023-06-26T07:07:32;5.93;;;1.40;;
16393;SDS011;8306;51.128;4.476;2023-06-26T07:09:59;2.93;;;1.40;;
16393;SDS011;8306;51.128;4.476;2023-06-26T07:12:25;2.07;;;1.20;;
16393;SDS011;8306;51.128;4.476;2023-06-26T07:14:51;4.07;;;1.40;;
16393;SDS011;8306;51.128;4.476;2023-06-26T07:17:18;2.77;;;1.00;;
16393;SDS011;8306;51.128;4.476;2023-06-26T07:19:44;3.23;;;1.40;;
16393;SDS011;8306;51.128;4.476;2023-06-26T07:22:11;4.67;;;1.30;;
16393;SDS011;8306;51.128;4.476;2023-06-26T07:24:37;1.77;;;1.10;;
16393;SDS011;8306;51.128;4.476;2023-06-26T07:27:04;3.03;;;1.40;;
16393;SDS011;8306;51.128;4.476;2023-06-26T07:29:30;1.83;;;0.93;;
16393;SDS011;8306;51.128;4.476;2023-06-26T07:31:57;3.33;;;1.27;;
16393;SDS011;8306;51.128;4.476;2023-06-26T07:34:23;2.37;;;1.30;;
16393;SDS011;8306;51.128;4.476;2023-06-26T07:36:49;1.95;;;1.20;;
16393;SDS011;8306;51.128;4.476;2023-06-26T07:39:16;3.05;;;1.15;;
16393;SDS011;8306;51.128;4.476;2023-06-26T07:41:42;3.05;;;1.25;;
16393;SDS011;8306;51.128;4.476;2023-06-26T07:44:09;4.12;;;1.20;;
16393;SDS011;8306;51.128;4.476;2023-06-26T07:46:35;1.37;;;1.00;;
16393;SDS011;8306;51.128;4.476;2023-06-26T07:49:02;3.67;;;1.27;;
16393;SDS011;8306;51.128;4.476;2023-06-26T07:51:28;3.30;;;1.00;;
16393;SDS011;8306;51.128;4.476;2023-06-26T07:53:55;2.45;;;1.10;;
16393;SDS011;8306;51.128;4.476;2023-06-26T07:56:21;2.40;;;1.30;;
16393;SDS011;8306;51.128;4.476;2023-06-26T07:58:48;3.60;;;1.42;;
16393;SDS011;8306;51.128;4.476;2023-06-26T08:01:14;2.20;;;1.23;;
16393;SDS011;8306;51.128;4.476;2023-06-26T08:03:41;2.45;;;0.98;;
16393;SDS011;8306;51.128;4.476;2023-06-26T08:06:07;1.90;;;1.40;;
16393;SDS011;8306;51.128;4.476;2023-06-26T08:08:34;2.53;;;1.00;;
16393;SDS011;8306;51.128;4.476;2023-06-26T08:11:00;2.50;;;1.40;;
16393;SDS011;8306;51.128;4.476;2023-06-26T08:13:27;1.58;;;1.20;;
16393;SDS011;8306;51.128;4.476;2023-06-26T08:15:53;4.50;;;1.50;;
16393;SDS011;8306;51.128;4.476;2023-06-26T08:18:20;5.00;;;1.20;;
16393;SDS011;8306;51.128;4.476;2023-06-26T08:20:46;2.50;;;1.30;;
16393;SDS011;8306;51.128;4.476;2023-06-26T08:23:13;4.45;;;1.40;;
16393;SDS011;8306;51.128;4.476;2023-06-26T08:25:39;3.25;;;1.15;;
16393;SDS011;8306;51.128;4.476;2023-06-26T08:28:06;1.55;;;1.10;;
16393;SDS011;8306;51.128;4.476;2023-06-26T08:30:32;1.20;;;1.00;;
16393;SDS011;8306;51.128;4.476;2023-06-26T08:32:58;5.78;;;1.83;;
16393;SDS011;8306;51.128;4.476;2023-06-26T08:35:25;1.98;;;1.17;;
16393;SDS011;8306;51.128;4.476;2023-06-26T08:37:51;3.22;;;1.48;;
16393;SDS011;8306;51.128;4.476;2023-06-26T08:40:18;3.28;;;1.60;;
16393;SDS011;8306;51.128;4.476;2023-06-26T08:42:44;2.42;;;1.35;;
16393;SDS011;8306;51.128;4.476;2023-06-26T08:45:11;3.50;;;1.37;;
16393;SDS011;8306;51.128;4.476;2023-06-26T08:47:37;1.92;;;1.30;;
16393;SDS011;8306;51.128;4.476;2023-06-26T08:50:08;2.25;;;1.20;;
16393;SDS011;8306;51.128;4.476;2023-06-26T08:52:33;2.97;;;1.30;;
16393;SDS011;8306;51.128;4.476;2023-06-26T08:54:58;1.95;;;1.10;;
16393;SDS011;8306;51.128;4.476;2023-06-26T08:57:26;3.67;;;1.65;;
16393;SDS011;8306;51.128;4.476;2023-06-26T08:59:53;1.90;;;1.00;;
16393;SDS011;8306;51.128;4.476;2023-06-26T09:02:19;3.42;;;1.20;;
16393;SDS011;8306;51.128;4.476;2023-06-26T09:04:48;2.22;;;1.23;;
16393;SDS011;8306;51.128;4.476;2023-06-26T09:07:15;2.40;;;1.20;;
16393;SDS011;8306;51.128;4.476;2023-06-26T09:09:41;2.33;;;1.37;;
16393;SDS011;8306;51.128;4.476;2023-06-26T09:12:11;3.33;;;1.35;;
16393;SDS011;8306;51.128;4.476;2023-06-26T09:14:38;4.07;;;1.75;;
16393;SDS011;8306;51.128;4.476;2023-06-26T09:17:04;1.60;;;1.20;;
16393;SDS011;8306;51.128;4.476;2023-06-26T09:19:30;3.33;;;1.62;;
16393;SDS011;8306;51.128;4.476;2023-06-26T09:21:57;2.17;;;1.20;;
16393;SDS011;8306;51.128;4.476;2023-06-26T09:24:23;3.70;;;1.25;;
16393;SDS011;8306;51.128;4.476;2023-06-26T09:26:50;1.60;;;1.30;;
16393;SDS011;8306;51.128;4.476;2023-06-26T09:29:16;1.77;;;1.40;;
16393;SDS011;8306;51.128;4.476;2023-06-26T09:31:43;2.92;;;1.50;;
16393;SDS011;8306;51.128;4.476;2023-06-26T09:34:09;2.60;;;1.42;;
16393;SDS011;8306;51.128;4.476;2023-06-26T09:36:36;10.20;;;2.05;;
16393;SDS011;8306;51.128;4.476;2023-06-26T09:39:03;3.10;;;1.35;;
16393;SDS011;8306;51.128;4.476;2023-06-26T09:41:29;3.33;;;1.40;;
16393;SDS011;8306;51.128;4.476;2023-06-26T09:43:56;2.92;;;1.73;;
16393;SDS011;8306;51.128;4.476;2023-06-26T09:46:28;2.85;;;1.65;;
16393;SDS011;8306;51.128;4.476;2023-06-26T09:49:01;4.37;;;1.43;;
16393;SDS011;8306;51.128;4.476;2023-06-26T09:51:32;2.67;;;1.50;;
16393;SDS011;8306;51.128;4.476;2023-06-26T09:53:59;11.23;;;2.00;;
16393;SDS011;8306;51.128;4.476;2023-06-26T09:56:28;4.87;;;1.53;;
16393;SDS011;8306;51.128;4.476;2023-06-26T09:58:58;2.67;;;1.50;;
16393;SDS011;8306;51.128;4.476;2023-06-26T10:01:24;3.30;;;1.20;;
16393;SDS011;8306;51.128;4.476;2023-06-26T10:03:50;2.87;;;1.40;;
16393;SDS011;8306;51.128;4.476;2023-06-26T10:06:19;3.83;;;1.30;;
16393;SDS011;8306;51.128;4.476;2023-06-26T10:08:43;1.60;;;1.00;;
16393;SDS011;8306;51.128;4.476;2023-06-26T10:11:11;1.58;;;1.27;;
16393;SDS011;8306;51.128;4.476;2023-06-26T10:13:38;1.33;;;1.00;;
16393;SDS011;8306;51.128;4.476;2023-06-26T10:16:03;1.70;;;1.10;;
16393;SDS011;8306;51.128;4.476;2023-06-26T10:18:29;2.90;;;1.50;;
16393;SDS011;8306;51.128;4.476;2023-06-26T10:20:55;3.83;;;1.25;;
16393;SDS011;8306;51.128;4.476;2023-06-26T10:23:22;3.35;;;1.55;;
16393;SDS011;8306;51.128;4.476;2023-06-26T10:25:48;2.55;;;1.33;;
16393;SDS011;8306;51.128;4.476;2023-06-26T10:28:15;3.63;;;1.50;;
16393;SDS011;8306;51.128;4.476;2023-06-26T10:30:41;7.23;;;1.70;;
16393;SDS011;8306;51.128;4.476;2023-06-26T10:33:08;1.80;;;1.00;;
16393;SDS011;8306;51.128;4.476;2023-06-26T10:35:40;2.53;;;1.30;;
16393;SDS011;8306;51.128;4.476;2023-06-26T10:38:01;2.40;;;1.17;;
16393;SDS011;8306;51.128;4.476;2023-06-26T10:40:39;2.72;;;1.50;;
16393;SDS011;8306;51.128;4.476;2023-06-26T10:43:07;2.90;;;1.27;;
16393;SDS011;8306;51.128;4.476;2023-06-26T10:45:35;1.57;;;1.30;;
16393;SDS011;8306;51.128;4.476;2023-06-26T10:48:02;3.17;;;1.50;;
16393;SDS011;8306;51.128;4.476;2023-06-26T10:50:29;2.30;;;1.40;;
16393;SDS011;8306;51.128;4.476;2023-06-26T10:53:14;1.80;;;1.30;;
16393;SDS011;8306;51.128;4.476;2023-06-26T10:55:49;1.83;;;1.00;;
16393;SDS011;8306;51.128;4.476;2023-06-26T11:03:38;2.80;;;1.40;;
16393;SDS011;8306;51.128;4.476;2023-06-26T11:06:11;3.10;;;1.33;;
16393;SDS011;8306;51.128;4.476;2023-06-26T11:08:49;1.45;;;1.10;;
16393;SDS011;8306;51.128;4.476;2023-06-26T11:11:15;2.08;;;1.30;;
16393;SDS011;8306;51.128;4.476;2023-06-26T11:13:42;3.25;;;1.20;;
16393;SDS011;8306;51.128;4.476;2023-06-26T11:16:08;2.05;;;1.40;;
16393;SDS011;8306;51.128;4.476;2023-06-26T11:18:35;2.28;;;1.35;;
16393;SDS011;8306;51.128;4.476;2023-06-26T11:21:05;3.05;;;1.30;;
16393;SDS011;8306;51.128;4.476;2023-06-26T11:23:34;2.65;;;1.37;;
16393;SDS011;8306;51.128;4.476;2023-06-26T11:26:13;3.47;;;1.30;;
16393;SDS011;8306;51.128;4.476;2023-06-26T11:28:38;1.42;;;1.10;;
16393;SDS011;8306;51.128;4.476;2023-06-26T11:31:06;2.40;;;1.03;;
16393;SDS011;8306;51.128;4.476;2023-06-26T11:33:32;1.53;;;0.90;;
16393;SDS011;8306;51.128;4.476;2023-06-26T11:36:07;3.27;;;1.20;;
16393;SDS011;8306;51.128;4.476;2023-06-26T11:38:25;1.20;;;1.10;;
16393;SDS011;8306;51.128;4.476;2023-06-26T11:40:52;3.80;;;1.60;;
16393;SDS011;8306;51.128;4.476;2023-06-26T11:43:18;3.17;;;1.50;;
16393;SDS011;8306;51.128;4.476;2023-06-26T11:45:45;1.42;;;1.20;;
16393;SDS011;8306;51.128;4.476;2023-06-26T11:48:11;2.10;;;1.30;;
16393;SDS011;8306;51.128;4.476;2023-06-26T11:50:38;2.53;;;1.45;;
16393;SDS011;8306;51.128;4.476;2023-06-26T11:53:04;1.60;;;1.13;;
16393;SDS011;8306;51.128;4.476;2023-06-26T11:55:39;2.53;;;1.17;;
16393;SDS011;8306;51.128;4.476;2023-06-26T11:57:57;1.57;;;1.20;;
16393;SDS011;8306;51.128;4.476;2023-06-26T12:00:24;1.50;;;1.20;;
16393;SDS011;8306;51.128;4.476;2023-06-26T12:02:50;2.33;;;1.23;;
16393;SDS011;8306;51.128;4.476;2023-06-26T12:05:17;1.87;;;1.10;;
16393;SDS011;8306;51.128;4.476;2023-06-26T12:07:43;2.00;;;1.30;;
16393;SDS011;8306;51.128;4.476;2023-06-26T12:10:10;4.93;;;1.50;;
16393;SDS011;8306;51.128;4.476;2023-06-26T12:12:36;1.63;;;1.10;;
16393;SDS011;8306;51.128;4.476;2023-06-26T12:15:03;2.70;;;1.10;;
16393;SDS011;8306;51.128;4.476;2023-06-26T12:17:29;2.53;;;1.20;;
16393;SDS011;8306;51.128;4.476;2023-06-26T12:19:55;2.83;;;1.87;;
16393;SDS011;8306;51.128;4.476;2023-06-26T12:22:22;3.43;;;1.50;;
16393;SDS011;8306;51.128;4.476;2023-06-26T12:24:48;1.87;;;1.40;;
16393;SDS011;8306;51.128;4.476;2023-06-26T12:27:15;3.80;;;1.87;;
16393;SDS011;8306;51.128;4.476;2023-06-26T12:29:51;2.13;;;1.20;;
16393;SDS011;8306;51.128;4.476;2023-06-26T12:32:17;2.43;;;1.27;;
16393;SDS011;8306;51.128;4.476;2023-06-26T12:34:46;3.87;;;1.60;;
16393;SDS011;8306;51.128;4.476;2023-06-26T12:37:10;3.53;;;1.50;;
16393;SDS011;8306;51.128;4.476;2023-06-26T12:39:49;3.23;;;1.60;;
16393;SDS011;8306;51.128;4.476;2023-06-26T12:42:15;2.03;;;1.50;;
16393;SDS011;8306;51.128;4.476;2023-06-26T12:44:44;7.83;;;1.63;;
16393;SDS011;8306;51.128;4.476;2023-06-26T12:47:10;2.83;;;1.43;;
16393;SDS011;8306;51.128;4.476;2023-06-26T12:49:37;2.47;;;1.30;;
16393;SDS011;8306;51.128;4.476;2023-06-26T12:52:04;2.97;;;1.20;;
16393;SDS011;8306;51.128;4.476;2023-06-26T12:54:30;2.20;;;1.00;;
16393;SDS011;8306;51.128;4.476;2023-06-26T12:56:56;2.73;;;1.37;;
16393;SDS011;8306;51.128;4.476;2023-06-26T12:59:22;2.47;;;1.20;;
16393;SDS011;8306;51.128;4.476;2023-06-26T13:01:49;5.80;;;1.57;;
16393;SDS011;8306;51.128;4.476;2023-06-26T13:04:15;3.43;;;1.33;;
16393;SDS011;8306;51.128;4.476;2023-06-26T13:06:42;1.83;;;1.20;;
16393;SDS011;8306;51.128;4.476;2023-06-26T13:09:08;5.47;;;1.53;;
16393;SDS011;8306;51.128;4.476;2023-06-26T13:11:36;5.63;;;1.23;;
16393;SDS011;8306;51.128;4.476;2023-06-26T13:14:01;2.30;;;1.37;;
16393;SDS011;8306;51.128;4.476;2023-06-26T13:16:28;1.53;;;1.20;;
16393;SDS011;8306;51.128;4.476;2023-06-26T13:18:54;2.27;;;1.20;;
16393;SDS011;8306;51.128;4.476;2023-06-26T13:21:21;1.93;;;1.40;;
16393;SDS011;8306;51.128;4.476;2023-06-26T13:23:47;1.33;;;1.00;;
16393;SDS011;8306;51.128;4.476;2023-06-26T13:26:14;3.17;;;1.20;;
16393;SDS011;8306;51.128;4.476;2023-06-26T13:28:40;3.43;;;1.20;;
16393;SDS011;8306;51.128;4.476;2023-06-26T13:31:07;2.77;;;1.00;;
16393;SDS011;8306;51.128;4.476;2023-06-26T13:33:33;2.07;;;1.10;;
16393;SDS011;8306;51.128;4.476;2023-06-26T13:36:00;2.40;;;1.40;;
16393;SDS011;8306;51.128;4.476;2023-06-26T13:38:26;3.13;;;1.40;;
16393;SDS011;8306;51.128;4.476;2023-06-26T13:40:53;2.73;;;1.07;;
16393;SDS011;8306;51.128;4.476;2023-06-26T13:43:22;2.77;;;1.30;;
16393;SDS011;8306;51.128;4.476;2023-06-26T13:45:49;1.70;;;1.20;;
16393;SDS011;8306;51.128;4.476;2023-06-26T13:48:15;2.20;;;1.20;;
16393;SDS011;8306;51.128;4.476;2023-06-26T13:50:41;3.87;;;1.40;;
16393;SDS011;8306;51.128;4.476;2023-06-26T13:53:08;1.17;;;1.00;;
16393;SDS011;8306;51.128;4.476;2023-06-26T13:55:34;2.83;;;1.20;;
16393;SDS011;8306;51.128;4.476;2023-06-26T13:58:01;2.53;;;1.40;;
16393;SDS011;8306;51.128;4.476;2023-06-26T14:00:27;2.73;;;1.20;;
16393;SDS011;8306;51.128;4.476;2023-06-26T14:02:54;2.03;;;1.20;;
16393;SDS011;8306;51.128;4.476;2023-06-26T14:05:20;1.93;;;1.40;;
16393;SDS011;8306;51.128;4.476;2023-06-26T14:07:47;4.53;;;1.33;;
16393;SDS011;8306;51.128;4.476;2023-06-26T14:10:13;3.67;;;1.37;;
16393;SDS011;8306;51.128;4.476;2023-06-26T14:12:40;2.17;;;1.20;;
16393;SDS011;8306;51.128;4.476;2023-06-26T14:15:06;2.43;;;1.10;;
16393;SDS011;8306;51.128;4.476;2023-06-26T14:17:33;2.27;;;1.30;;
16393;SDS011;8306;51.128;4.476;2023-06-26T14:19:59;3.90;;;1.23;;
16393;SDS011;8306;51.128;4.476;2023-06-26T14:22:26;2.07;;;1.13;;
16393;SDS011;8306;51.128;4.476;2023-06-26T14:24:52;1.63;;;1.17;;
16393;SDS011;8306;51.128;4.476;2023-06-26T14:27:19;2.23;;;1.33;;
16393;SDS011;8306;51.128;4.476;2023-06-26T14:29:45;2.53;;;1.00;;
16393;SDS011;8306;51.128;4.476;2023-06-26T14:32:12;2.80;;;1.57;;
16393;SDS011;8306;51.128;4.476;2023-06-26T14:34:39;3.77;;;1.60;;
16393;SDS011;8306;51.128;4.476;2023-06-26T14:37:04;2.40;;;1.27;;
16393;SDS011;8306;51.128;4.476;2023-06-26T14:39:31;2.67;;;1.30;;
16393;SDS011;8306;51.128;4.476;2023-06-26T14:41:57;1.60;;;1.07;;
16393;SDS011;8306;51.128;4.476;2023-06-26T14:44:24;3.20;;;1.10;;
16393;SDS011;8306;51.128;4.476;2023-06-26T14:46:50;2.67;;;1.57;;
16393;SDS011;8306;51.128;4.476;2023-06-26T14:49:17;2.60;;;1.20;;
16393;SDS011;8306;51.128;4.476;2023-06-26T14:51:43;2.83;;;1.43;;
16393;SDS011;8306;51.128;4.476;2023-06-26T14:54:10;2.23;;;1.23;;
16393;SDS011;8306;51.128;4.476;2023-06-26T14:56:36;1.50;;;0.90;;
16393;SDS011;8306;51.128;4.476;2023-06-26T14:59:03;2.90;;;1.00;;
16393;SDS011;8306;51.128;4.476;2023-06-26T15:01:29;1.77;;;1.07;;
16393;SDS011;8306;51.128;4.476;2023-06-26T15:03:56;2.90;;;1.27;;
16393;SDS011;8306;51.128;4.476;2023-06-26T15:06:22;4.10;;;1.30;;
16393;SDS011;8306;51.128;4.476;2023-06-26T15:08:49;2.50;;;1.20;;
16393;SDS011;8306;51.128;4.476;2023-06-26T15:11:15;2.10;;;1.23;;